createdAt,value
2023-01-19T00:01:43.722Z,1.56
2023-01-19T00:04:11.846Z,1.56
2023-01-19T00:06:40.065Z,1.56
2023-01-19T00:09:08.049Z,1.41
2023-01-19T00:11:39.167Z,1.45
2023-01-19T00:14:07.141Z,1.62
2023-01-19T00:16:35.111Z,1.72
2023-01-19T00:19:03.385Z,1.81
2023-01-19T00:21:31.353Z,1.80
2023-01-19T00:23:59.269Z,1.50
2023-01-19T00:26:27.569Z,1.38
2023-01-19T00:28:56.337Z,1.37
2023-01-19T00:31:25.038Z,1.36
2023-01-19T00:33:53.157Z,1.37
2023-01-19T00:36:21.113Z,1.50
2023-01-19T00:38:49.078Z,1.61
2023-01-19T00:41:17.907Z,1.58
2023-01-19T00:43:45.893Z,1.51
2023-01-19T00:46:13.816Z,1.35
2023-01-19T00:48:41.705Z,1.41
2023-01-19T00:51:09.609Z,1.50
2023-01-19T00:53:39.442Z,1.53
2023-01-19T00:56:07.838Z,1.43
2023-01-19T00:58:35.731Z,1.33
2023-01-19T01:01:04.979Z,1.32
2023-01-19T01:03:33.123Z,1.22
2023-01-19T01:06:01.117Z,1.21
2023-01-19T01:08:30.433Z,1.25
2023-01-19T01:10:58.392Z,1.35
2023-01-19T01:13:28.055Z,1.39
2023-01-19T01:15:57.153Z,1.28
2023-01-19T01:18:26.279Z,1.34
2023-01-19T01:21:05.426Z,1.41
2023-01-19T01:23:35.181Z,1.32
2023-01-19T01:26:03.213Z,1.24
2023-01-19T01:28:33.487Z,1.21
2023-01-19T01:31:01.839Z,1.34
2023-01-19T01:33:41.328Z,1.47
2023-01-19T01:36:11.929Z,1.52
2023-01-19T01:38:41.762Z,1.32
2023-01-19T01:41:10.599Z,1.27
2023-01-19T01:43:58.083Z,1.41
2023-01-19T01:46:28.421Z,1.47
2023-01-19T01:49:15.629Z,1.49
2023-01-19T01:51:52.355Z,1.45
2023-01-19T01:54:26.944Z,1.44
2023-01-19T01:57:02.733Z,1.21
2023-01-19T01:59:39.294Z,1.30
2023-01-19T02:02:34.065Z,1.16
2023-01-19T02:05:11.227Z,1.30
2023-01-19T02:08:11.571Z,1.23
2023-01-19T02:11:00.669Z,1.11
2023-01-19T02:13:33.348Z,1.23
2023-01-19T02:16:07.606Z,1.37
2023-01-19T02:18:37.236Z,1.44
2023-01-19T02:21:38.272Z,1.31
2023-01-19T02:24:08.025Z,1.37
2023-01-19T02:26:47.894Z,1.35
2023-01-19T02:29:20.721Z,1.53
2023-01-19T02:31:48.700Z,1.62
2023-01-19T02:34:20.221Z,1.47
2023-01-19T02:36:56.113Z,1.47
2023-01-19T02:39:44.759Z,1.62
2023-01-19T02:42:29.390Z,1.65
2023-01-19T02:44:57.802Z,1.54
2023-01-19T02:47:25.730Z,1.39
2023-01-19T02:49:58.831Z,1.28
2023-01-19T02:52:27.965Z,1.20
2023-01-19T02:55:30.652Z,1.18
2023-01-19T02:58:20.243Z,1.15
2023-01-19T03:01:02.719Z,1.13
2023-01-19T03:03:44.219Z,1.18
2023-01-19T03:06:30.299Z,1.22
2023-01-19T03:09:50.003Z,1.20
2023-01-19T03:12:47.505Z,1.32
2023-01-19T03:15:58.035Z,1.28
2023-01-19T03:18:31.247Z,1.15
2023-01-19T03:21:05.536Z,1.27
2023-01-19T03:23:38.588Z,1.43
2023-01-19T03:26:11.365Z,1.52
2023-01-19T03:28:42.131Z,1.56
2023-01-19T03:31:17.003Z,1.56
2023-01-19T03:33:57.720Z,1.53
2023-01-19T03:36:32.933Z,1.52
2023-01-19T03:39:02.696Z,1.50
2023-01-19T03:41:34.197Z,1.50
2023-01-19T03:44:05.780Z,1.37
2023-01-19T03:46:34.131Z,1.46
2023-01-19T03:49:02.142Z,1.56
2023-01-19T03:51:30.811Z,1.51
2023-01-19T03:53:58.790Z,1.50
2023-01-19T03:56:26.711Z,1.60
2023-01-19T03:58:56.290Z,1.64
2023-01-19T04:01:25.661Z,1.65
2023-01-19T04:03:53.888Z,1.70
2023-01-19T04:06:22.459Z,1.70
2023-01-19T04:08:51.926Z,1.68
2023-01-19T04:11:19.852Z,1.64
2023-01-19T04:13:47.836Z,1.66
2023-01-19T04:16:20.130Z,1.65
2023-01-19T04:18:48.629Z,1.62
2023-01-19T04:21:16.684Z,1.66
2023-01-19T04:23:45.972Z,1.62
2023-01-19T04:26:13.934Z,1.50
2023-01-19T04:28:42.713Z,1.56
2023-01-19T04:31:10.854Z,1.38
2023-01-19T04:33:38.926Z,1.44
2023-01-19T04:36:07.316Z,1.45
2023-01-19T04:38:35.768Z,1.45
2023-01-19T04:41:03.880Z,1.39
2023-01-19T04:43:32.005Z,1.41
2023-01-19T04:45:59.997Z,1.41
2023-01-19T04:48:28.204Z,1.38
2023-01-19T04:50:56.147Z,1.39
2023-01-19T04:53:24.218Z,1.22
2023-01-19T04:55:55.486Z,1.26
2023-01-19T04:58:23.461Z,1.30
2023-01-19T05:00:53.174Z,1.38
2023-01-19T05:03:21.328Z,1.42
2023-01-19T05:05:49.643Z,1.41
2023-01-19T05:08:17.654Z,1.43
2023-01-19T05:10:45.539Z,1.52
2023-01-19T05:13:14.091Z,1.47
2023-01-19T05:15:42.001Z,1.41
2023-01-19T05:18:10.338Z,1.37
2023-01-19T05:20:39.590Z,1.33
2023-01-19T05:23:07.464Z,1.39
2023-01-19T05:25:35.677Z,1.39
2023-01-19T05:28:03.918Z,1.32
2023-01-19T05:30:31.910Z,1.34
2023-01-19T05:33:00.400Z,1.29
2023-01-19T05:35:35.533Z,1.39
2023-01-19T05:38:04.277Z,1.31
2023-01-19T05:40:32.451Z,1.24
2023-01-19T05:43:04.462Z,1.33
2023-01-19T05:45:33.055Z,1.37
2023-01-19T05:48:01.133Z,1.38
2023-01-19T05:50:29.070Z,1.38
2023-01-19T05:52:57.638Z,1.35
2023-01-19T05:55:26.500Z,1.25
2023-01-19T05:57:54.623Z,1.25
2023-01-19T06:00:23.095Z,1.40
2023-01-19T06:02:51.128Z,1.33
2023-01-19T06:05:19.562Z,1.39
2023-01-19T06:07:47.646Z,1.38
2023-01-19T06:10:16.188Z,1.37
2023-01-19T06:12:44.115Z,1.23
2023-01-19T06:15:12.889Z,1.32
2023-01-19T06:17:41.278Z,1.28
2023-01-19T06:20:10.449Z,1.22
2023-01-19T06:22:38.442Z,1.24
2023-01-19T06:25:06.865Z,1.26
2023-01-19T06:27:34.744Z,1.27
2023-01-19T06:30:04.616Z,1.36
2023-01-19T06:32:32.622Z,1.35
2023-01-19T06:35:00.639Z,1.40
2023-01-19T06:37:30.498Z,1.47
2023-01-19T06:39:58.499Z,1.51
2023-01-19T06:42:26.572Z,1.49
2023-01-19T06:44:54.642Z,1.64
2023-01-19T06:47:22.593Z,1.74
2023-01-19T06:49:50.721Z,1.81
2023-01-19T06:52:19.916Z,1.87
2023-01-19T06:54:47.899Z,1.90
2023-01-19T06:57:18.739Z,1.91
2023-01-19T06:59:46.881Z,1.93
2023-01-19T07:02:27.043Z,1.92
2023-01-19T07:04:57.128Z,1.92
2023-01-19T07:07:25.403Z,1.95
2023-01-19T07:09:54.197Z,1.97
2023-01-19T07:12:22.877Z,1.93
2023-01-19T07:14:51.432Z,1.85
2023-01-19T07:17:19.947Z,1.82
2023-01-19T07:19:47.894Z,1.87
2023-01-19T07:22:15.870Z,1.87
2023-01-19T07:24:43.875Z,1.83
2023-01-19T07:27:11.988Z,1.88
2023-01-19T07:29:40.054Z,1.88
2023-01-19T07:32:08.782Z,1.83
2023-01-19T07:34:36.941Z,1.69
2023-01-19T07:37:04.884Z,1.75
2023-01-19T07:39:32.865Z,1.82
2023-01-19T07:42:01.086Z,1.96
2023-01-19T07:44:28.995Z,2.05
2023-01-19T07:46:57.030Z,2.02
2023-01-19T07:49:24.939Z,1.97
2023-01-19T07:51:52.815Z,1.97
2023-01-19T07:54:20.818Z,1.95
2023-01-19T07:56:48.696Z,1.95
2023-01-19T07:59:16.637Z,1.88
2023-01-19T08:01:45.004Z,1.82
2023-01-19T08:04:13.005Z,1.79
2023-01-19T08:06:45.685Z,1.80
2023-01-19T08:09:13.683Z,1.80
2023-01-19T08:11:41.708Z,1.84
2023-01-19T08:14:10.033Z,1.89
2023-01-19T08:16:38.232Z,1.89
2023-01-19T08:19:06.160Z,1.99
2023-01-19T08:21:35.753Z,1.97
2023-01-19T08:24:03.715Z,1.91
2023-01-19T08:26:35.128Z,1.99
2023-01-19T08:29:05.580Z,1.95
2023-01-19T08:31:33.662Z,1.91
2023-01-19T08:34:01.772Z,1.90
2023-01-19T08:36:30.360Z,1.93
2023-01-19T08:38:58.254Z,1.98
2023-01-19T08:41:26.858Z,2.09
2023-01-19T08:43:54.887Z,2.17
2023-01-19T08:46:22.816Z,2.27
2023-01-19T08:48:50.962Z,2.30
2023-01-19T08:51:19.378Z,2.34
2023-01-19T08:53:47.544Z,2.40
2023-01-19T08:56:16.143Z,2.36
2023-01-19T08:58:49.378Z,2.06
2023-01-19T09:01:25.535Z,2.24
2023-01-19T09:03:54.535Z,2.14
2023-01-19T09:06:24.419Z,2.13
2023-01-19T09:08:52.367Z,2.26
2023-01-19T09:11:20.504Z,2.34
2023-01-19T09:13:48.412Z,2.43
2023-01-19T09:16:16.397Z,2.53
2023-01-19T09:18:45.990Z,2.44
2023-01-19T09:21:14.978Z,2.41
2023-01-19T09:23:43.302Z,2.10
2023-01-19T09:26:11.763Z,2.16
2023-01-19T09:28:39.729Z,2.24
2023-01-19T09:31:08.847Z,2.35
2023-01-19T09:33:36.985Z,2.32
2023-01-19T09:36:05.327Z,2.19
2023-01-19T09:38:33.935Z,2.24
2023-01-19T09:41:02.070Z,2.28
2023-01-19T09:43:57.150Z,2.25
2023-01-19T09:46:41.377Z,2.33
2023-01-19T09:49:45.969Z,2.32
2023-01-19T09:52:15.672Z,2.31
2023-01-19T09:55:21.424Z,2.36
2023-01-19T09:57:49.980Z,2.41
2023-01-19T10:00:19.236Z,2.20
2023-01-19T10:03:14.355Z,1.36
2023-01-19T10:05:56.629Z,1.15
2023-01-19T10:08:59.474Z,1.67
2023-01-19T10:11:52.725Z,1.66
2023-01-19T10:14:36.351Z,1.73
2023-01-19T10:17:38.704Z,1.77
2023-01-19T10:20:19.660Z,1.80
2023-01-19T10:22:49.812Z,1.66
2023-01-19T10:25:23.693Z,1.36
2023-01-19T10:27:51.915Z,1.64
2023-01-19T10:30:26.181Z,1.76
2023-01-19T10:32:54.458Z,1.74
2023-01-19T10:35:24.978Z,1.53
2023-01-19T10:38:00.606Z,1.82
2023-01-19T10:40:31.937Z,1.94
2023-01-19T10:43:00.498Z,1.98
2023-01-19T10:45:31.354Z,1.83
2023-01-19T10:48:06.765Z,1.62
2023-01-19T10:50:39.679Z,1.86
2023-01-19T10:53:22.451Z,2.05
2023-01-19T10:56:10.916Z,2.15
2023-01-19T10:58:40.331Z,2.26
2023-01-19T11:01:38.224Z,1.97
2023-01-19T11:04:27.259Z,1.83
2023-01-19T11:07:18.784Z,1.84
2023-01-19T11:09:47.867Z,1.89
2023-01-19T11:12:24.261Z,1.83
2023-01-19T11:14:53.530Z,2.01
2023-01-19T11:17:26.036Z,2.06
2023-01-19T11:20:01.817Z,2.13
2023-01-19T11:22:33.709Z,2.21
2023-01-19T11:25:04.963Z,2.27
2023-01-19T11:27:37.564Z,2.13
2023-01-19T11:30:24.345Z,2.24
2023-01-19T11:32:53.254Z,2.31
2023-01-19T11:35:39.107Z,2.31
2023-01-19T11:38:22.544Z,2.23
2023-01-19T11:40:56.486Z,2.29
2023-01-19T11:43:39.768Z,2.26
2023-01-19T11:46:17.651Z,2.15
2023-01-19T11:49:02.448Z,2.28
2023-01-19T11:51:51.017Z,2.21
2023-01-19T11:54:26.927Z,2.12
2023-01-19T11:57:00.385Z,1.84
2023-01-19T11:59:28.762Z,1.45
2023-01-19T12:02:01.876Z,1.54
2023-01-19T12:04:36.554Z,1.69
2023-01-19T12:07:10.588Z,1.67
2023-01-19T12:10:22.755Z,1.89
2023-01-19T12:12:52.515Z,2.20
2023-01-19T12:15:38.900Z,2.21
2023-01-19T12:18:15.682Z,2.12
2023-01-19T12:20:50.548Z,1.97
2023-01-19T12:23:28.375Z,1.96
2023-01-19T12:26:21.297Z,1.99
2023-01-19T12:28:52.630Z,2.18
2023-01-19T12:31:22.894Z,2.34
2023-01-19T12:33:52.039Z,2.49
2023-01-19T12:36:37.135Z,2.37
2023-01-19T12:39:17.961Z,2.20
2023-01-19T12:41:47.494Z,2.10
2023-01-19T12:44:22.507Z,2.15
2023-01-19T12:47:03.884Z,2.39
2023-01-19T12:49:39.030Z,2.55
2023-01-19T12:52:35.798Z,2.59
2023-01-19T12:55:15.240Z,2.42
2023-01-19T12:57:56.191Z,2.08
2023-01-19T13:00:24.081Z,2.00
2023-01-19T13:03:00.666Z,2.02
2023-01-19T13:05:33.302Z,2.16
2023-01-19T13:08:01.839Z,2.38
2023-01-19T13:11:09.428Z,2.43
2023-01-19T13:13:50.138Z,2.58
2023-01-19T13:16:18.095Z,2.65
2023-01-19T13:18:58.607Z,2.61
2023-01-19T13:21:39.693Z,2.57
2023-01-19T13:24:16.988Z,2.71
2023-01-19T13:26:51.324Z,2.77
2023-01-19T13:29:30.921Z,2.87
2023-01-19T13:32:04.299Z,2.86
2023-01-19T13:34:38.598Z,2.71
2023-01-19T13:37:17.113Z,2.38
2023-01-19T13:39:46.286Z,2.49
2023-01-19T13:42:23.290Z,2.55
2023-01-19T13:44:56.695Z,2.54
2023-01-19T13:47:36.780Z,2.54
2023-01-19T13:50:05.549Z,2.47
2023-01-19T13:52:33.522Z,2.44
2023-01-19T13:55:04.620Z,2.37
2023-01-19T13:57:45.399Z,2.31
2023-01-19T14:00:16.275Z,2.30
2023-01-19T14:03:13.439Z,2.27
2023-01-19T14:05:43.205Z,2.21
2023-01-19T14:08:11.318Z,2.13
2023-01-19T14:10:45.747Z,2.00
2023-01-19T14:13:34.841Z,1.87
2023-01-19T14:16:25.145Z,1.71
2023-01-19T14:19:03.059Z,1.61
2023-01-19T14:21:40.559Z,1.48
2023-01-19T14:24:17.001Z,1.26
2023-01-19T14:26:53.842Z,1.30
2023-01-19T14:29:32.636Z,1.34
2023-01-19T14:32:18.074Z,1.32
2023-01-19T14:34:53.680Z,1.25
2023-01-19T14:37:35.156Z,1.16
2023-01-19T14:40:13.277Z,1.10
2023-01-19T14:42:53.062Z,1.10
2023-01-19T14:45:30.323Z,1.09
2023-01-19T14:48:12.083Z,1.05
2023-01-19T14:50:51.024Z,1.02
2023-01-19T14:53:38.463Z,0.96
2023-01-19T14:56:07.249Z,0.84
2023-01-19T14:58:35.767Z,0.77
2023-01-19T15:01:04.538Z,0.69
2023-01-19T15:03:48.520Z,0.56
2023-01-19T15:06:19.826Z,0.54
2023-01-19T15:08:50.126Z,0.49
2023-01-19T15:11:30.020Z,0.50
2023-01-19T15:13:59.625Z,0.47
2023-01-19T15:16:30.153Z,0.35
2023-01-19T15:18:58.159Z,0.26
2023-01-19T15:21:26.868Z,0.18
2023-01-19T15:23:55.430Z,0.15
2023-01-19T15:26:26.193Z,0.11
2023-01-19T15:28:56.323Z,0.10
2023-01-19T15:31:26.345Z,0.08
2023-01-19T15:33:54.350Z,0.04
2023-01-19T15:36:24.456Z,-0.01
2023-01-19T15:38:53.047Z,0.02
2023-01-19T15:41:27.112Z,0.02
2023-01-19T15:43:55.872Z,-0.07
2023-01-19T15:46:27.897Z,-0.10
2023-01-19T15:48:55.866Z,-0.10
2023-01-19T15:51:26.103Z,-0.14
2023-01-19T15:53:55.110Z,-0.18
2023-01-19T15:56:30.002Z,-0.21
2023-01-19T15:58:59.629Z,-0.18
2023-01-19T16:01:33.786Z,-0.20
2023-01-19T16:04:06.034Z,-0.19
2023-01-19T16:06:34.192Z,-0.16
2023-01-19T16:09:03.714Z,-0.14
2023-01-19T16:11:34.512Z,-0.16
2023-01-19T16:14:02.659Z,-0.12
2023-01-19T16:16:30.810Z,-0.13
2023-01-19T16:18:58.856Z,-0.18
2023-01-19T16:21:27.491Z,-0.21
2023-01-19T16:23:55.856Z,-0.21
2023-01-19T16:26:32.595Z,-0.22
2023-01-19T16:29:08.459Z,-0.24
2023-01-19T16:31:39.099Z,-0.27
2023-01-19T16:34:08.318Z,-0.28
2023-01-19T16:36:40.396Z,-0.28
2023-01-19T16:39:13.376Z,-0.29
2023-01-19T16:41:42.082Z,-0.30
2023-01-19T16:44:12.970Z,-0.31
2023-01-19T16:46:44.619Z,-0.36
2023-01-19T16:49:21.108Z,-0.38
2023-01-19T16:51:50.470Z,-0.41
2023-01-19T16:54:27.274Z,-0.44
2023-01-19T16:56:57.224Z,-0.45
2023-01-19T16:59:26.919Z,-0.47
2023-01-19T17:01:55.870Z,-0.48
2023-01-19T17:04:24.306Z,-0.51
2023-01-19T17:06:53.773Z,-0.49
2023-01-19T17:09:21.856Z,-0.53
2023-01-19T17:11:49.786Z,-0.53
2023-01-19T17:14:22.709Z,-0.50
2023-01-19T17:16:50.849Z,-0.48
2023-01-19T17:19:22.078Z,-0.50
2023-01-19T17:21:50.602Z,-0.46
2023-01-19T17:24:18.890Z,-0.45
2023-01-19T17:26:48.667Z,-0.45
2023-01-19T17:29:17.463Z,-0.43
2023-01-19T17:31:46.609Z,-0.47
2023-01-19T17:34:14.684Z,-0.43
2023-01-19T17:36:42.813Z,-0.49
2023-01-19T17:39:14.652Z,-0.49
2023-01-19T17:41:42.777Z,-0.50
2023-01-19T17:44:11.139Z,-0.55
2023-01-19T17:46:39.672Z,-0.56
2023-01-19T17:49:08.306Z,-0.50
2023-01-19T17:51:37.370Z,-0.49
2023-01-19T17:54:05.718Z,-0.50
2023-01-19T17:56:38.673Z,-0.52
2023-01-19T17:59:08.098Z,-0.54
2023-01-19T18:01:40.040Z,-0.55
2023-01-19T18:04:09.223Z,-0.56
2023-01-19T18:06:38.361Z,-0.56
2023-01-19T18:09:07.393Z,-0.57
2023-01-19T18:11:35.941Z,-0.55
2023-01-19T18:14:05.295Z,-0.55
2023-01-19T18:16:33.562Z,-0.57
2023-01-19T18:19:01.784Z,-0.55
2023-01-19T18:21:30.629Z,-0.55
2023-01-19T18:24:05.249Z,-0.53
2023-01-19T18:26:34.807Z,-0.49
2023-01-19T18:29:03.123Z,-0.52
2023-01-19T18:31:31.174Z,-0.56
2023-01-19T18:33:59.767Z,-0.55
2023-01-19T18:36:28.363Z,-0.56
2023-01-19T18:38:56.438Z,-0.59
2023-01-19T18:41:24.525Z,-0.61
2023-01-19T18:43:58.617Z,-0.65
2023-01-19T18:46:27.553Z,-0.70
2023-01-19T18:48:55.896Z,-0.72
2023-01-19T18:51:24.089Z,-0.73
2023-01-19T18:53:52.254Z,-0.76
2023-01-19T18:56:20.351Z,-0.79
2023-01-19T18:58:49.931Z,-0.77
2023-01-19T19:01:34.933Z,-0.79
2023-01-19T19:04:03.287Z,-0.80
2023-01-19T19:06:31.373Z,-0.77
2023-01-19T19:08:59.640Z,-0.74
2023-01-19T19:11:28.181Z,-0.74
2023-01-19T19:14:01.932Z,-0.73
2023-01-19T19:16:35.180Z,-0.71
2023-01-19T19:19:04.248Z,-0.70
2023-01-19T19:21:32.215Z,-0.70
2023-01-19T19:24:00.186Z,-0.70
2023-01-19T19:26:28.915Z,-0.69
2023-01-19T19:28:56.937Z,-0.67
2023-01-19T19:31:27.372Z,-0.70
2023-01-19T19:33:57.402Z,-0.67
2023-01-19T19:36:28.035Z,-0.67
2023-01-19T19:38:56.082Z,-0.73
2023-01-19T19:41:27.159Z,-0.82
2023-01-19T19:43:55.788Z,-0.84
2023-01-19T19:46:24.923Z,-0.83
2023-01-19T19:48:55.638Z,-0.84
2023-01-19T19:51:27.536Z,-0.88
2023-01-19T19:53:58.761Z,-0.87
2023-01-19T19:56:29.815Z,-0.86
2023-01-19T19:59:00.714Z,-0.84
2023-01-19T20:01:33.475Z,-0.88
2023-01-19T20:04:09.251Z,-0.96
2023-01-19T20:06:41.680Z,-1.01
2023-01-19T20:09:15.739Z,-1.02
2023-01-19T20:11:46.972Z,-1.09
2023-01-19T20:14:18.162Z,-1.07
2023-01-19T20:16:46.070Z,-1.07
2023-01-19T20:19:14.199Z,-1.05
2023-01-19T20:21:42.607Z,-1.05
2023-01-19T20:24:20.388Z,-1.09
2023-01-19T20:26:52.360Z,-1.06
2023-01-19T20:29:21.143Z,-1.04
2023-01-19T20:31:53.892Z,-1.05
2023-01-19T20:34:26.504Z,-1.07
2023-01-19T20:36:55.335Z,-1.14
2023-01-19T20:39:24.703Z,-1.18
2023-01-19T20:41:52.801Z,-1.17
2023-01-19T20:44:24.275Z,-1.16
2023-01-19T20:46:53.919Z,-1.16
2023-01-19T20:49:22.620Z,-1.15
2023-01-19T20:51:52.035Z,-1.16
2023-01-19T20:54:30.080Z,-1.20
2023-01-19T20:56:58.010Z,-1.25
2023-01-19T20:59:26.416Z,-1.26
2023-01-19T21:01:54.900Z,-1.23
2023-01-19T21:04:23.130Z,-1.26
2023-01-19T21:06:51.054Z,-1.25
2023-01-19T21:09:19.223Z,-1.24
2023-01-19T21:11:47.179Z,-1.21
2023-01-19T21:14:15.109Z,-1.18
2023-01-19T21:16:43.101Z,-1.17
2023-01-19T21:19:11.870Z,-1.12
2023-01-19T21:21:39.805Z,-1.10
2023-01-19T21:24:10.382Z,-1.12
2023-01-19T21:26:38.424Z,-1.10
2023-01-19T21:29:06.560Z,-1.10
2023-01-19T21:31:34.625Z,-1.07
2023-01-19T21:34:02.604Z,-1.04
2023-01-19T21:36:30.499Z,-1.05
2023-01-19T21:39:00.767Z,-1.03
2023-01-19T21:41:30.147Z,-1.02
2023-01-19T21:44:00.766Z,-1.00
2023-01-19T21:46:29.551Z,-1.00
2023-01-19T21:49:15.768Z,-1.00
2023-01-19T21:51:45.184Z,-1.00
2023-01-19T21:54:14.099Z,-1.04
2023-01-19T21:56:43.344Z,-1.08
2023-01-19T21:59:15.888Z,-1.04
2023-01-19T22:01:46.115Z,-1.06
2023-01-19T22:04:14.590Z,-1.22
2023-01-19T22:06:42.613Z,-1.11
2023-01-19T22:09:10.559Z,-1.09
2023-01-19T22:11:38.436Z,-1.04
2023-01-19T22:14:06.398Z,-1.04
2023-01-19T22:16:34.356Z,-1.10
2023-01-19T22:19:02.430Z,-1.10
2023-01-19T22:21:35.876Z,-1.07
2023-01-19T22:24:05.501Z,-1.03
2023-01-19T22:26:34.704Z,-1.09
2023-01-19T22:29:04.770Z,-1.09
2023-01-19T22:31:32.945Z,-1.15
2023-01-19T22:34:00.948Z,-1.14
2023-01-19T22:36:35.608Z,-1.12
2023-01-19T22:39:08.039Z,-1.11
2023-01-19T22:41:42.131Z,-1.12
2023-01-19T22:44:21.823Z,-1.11
2023-01-19T22:46:53.982Z,-1.07
2023-01-19T22:49:22.149Z,-1.10
2023-01-19T22:51:50.025Z,-1.11
2023-01-19T22:54:17.998Z,-1.11
2023-01-19T22:56:45.967Z,-1.07
2023-01-19T22:59:13.986Z,-1.07
2023-01-19T23:01:43.669Z,-1.09
2023-01-19T23:04:15.511Z,-1.12
2023-01-19T23:06:46.905Z,-1.12
2023-01-19T23:09:15.308Z,-1.16
2023-01-19T23:11:51.226Z,-1.24
2023-01-19T23:14:21.926Z,-1.24
2023-01-19T23:16:50.048Z,-1.34
2023-01-19T23:19:18.731Z,-1.44
2023-01-19T23:21:48.852Z,-1.58
2023-01-19T23:24:16.785Z,-1.65
2023-01-19T23:26:44.818Z,-1.67
2023-01-19T23:29:15.444Z,-1.64
2023-01-19T23:31:47.025Z,-1.54
2023-01-19T23:34:15.758Z,-1.47
2023-01-19T23:36:44.348Z,-1.50
2023-01-19T23:39:22.555Z,-1.49
2023-01-19T23:41:50.643Z,-1.49
2023-01-19T23:44:18.788Z,-1.50
2023-01-19T23:46:47.162Z,-1.52
2023-01-19T23:49:15.061Z,-1.60
2023-01-19T23:51:42.965Z,-1.69
2023-01-19T23:54:12.299Z,-1.73
2023-01-19T23:56:42.562Z,-1.66
2023-01-19T23:59:14.905Z,-1.78
